Data Viewer
| City | State | Eastern Time | Source | Temp | DewPt | RH | BP | 5 Min Precip | Wind Speed | Wind Dir | 5 Min Wind Max | 5 Min Wind Max Dir |
|---|---|---|---|---|---|---|---|---|---|---|---|---|
| Bar Harbor | ME | 2026-05-07 12:50 | AWOS | 59 | 37 | 44 | 29.64 | 5 | NNW | |||
| Bar Harbor | ME | 2026-05-08 05:30 | AWOS | 37 | 30 | 75 | 29.71 | 5 | W | |||
| Bar Harbor | ME | 2026-05-08 04:25 | AWOS | 39 | 28 | 65 | 29.71 | 0 | N | |||
| Bar Harbor | ME | 2026-05-08 04:30 | AWOS | 36 | 28 | 75 | 29.70 | 0 | N | |||
| Bar Harbor | ME | 2026-05-08 04:35 | AWOS | 36 | 30 | 80 | 29.70 | 3 | NW | |||
| Bar Harbor | ME | 2026-05-08 04:40 | AWOS | 37 | 30 | 75 | 29.70 | 3 | WNW | |||
| Bar Harbor | ME | 2026-05-08 04:45 | AWOS | 37 | 30 | 75 | 29.70 | 3 | W | |||
| Bar Harbor | ME | 2026-05-08 04:50 | AWOS | 39 | 30 | 70 | 29.70 | 0 | N | |||
| Bar Harbor | ME | 2026-05-08 04:55 | AWOS | 39 | 30 | 70 | 29.70 | 0 | N | |||
| Bar Harbor | ME | 2026-05-08 04:56 | AWOS | 38 | 30 | 73 | 29.71 | 0 | N | |||
| Bar Harbor | ME | 2026-05-08 05:10 | AWOS | 37 | 30 | 75 | 29.71 | 3 | WSW | |||
| Bar Harbor | ME | 2026-05-08 05:15 | AWOS | 37 | 30 | 75 | 29.71 | 5 | WSW | |||
| Bar Harbor | ME | 2026-05-08 05:20 | AWOS | 37 | 30 | 75 | 29.71 | 3 | WSW | |||
| Bar Harbor | ME | 2026-05-08 05:25 | AWOS | 37 | 30 | 75 | 29.71 | 5 | W | |||
| Bar Harbor | ME | 2026-05-08 05:45 | AWOS | 37 | 30 | 75 | 29.72 | 3 | WSW | |||
| Bar Harbor | ME | 2026-05-08 04:10 | AWOS | 41 | 28 | 61 | 29.70 | 3 | WSW | |||
| Bar Harbor | ME | 2026-05-08 05:50 | AWOS | 39 | 30 | 70 | 29.72 | 0 | N | |||
| Bar Harbor | ME | 2026-05-08 05:55 | AWOS | 39 | 30 | 70 | 29.72 | 0 | N | |||
| Bar Harbor | ME | 2026-05-08 05:56 | AWOS | 40 | 31 | 70 | 29.72 | 0 | N | |||
| Bar Harbor | ME | 2026-05-08 06:00 | AWOS | 39 | 30 | 70 | 29.72 | 3 | W | |||
| Bar Harbor | ME | 2026-05-08 06:05 | AWOS | 39 | 30 | 70 | 29.72 | 5 | W | |||
| Bar Harbor | ME | 2026-05-08 06:10 | AWOS | 39 | 30 | 70 | 29.72 | 5 | WSW | |||
| Bar Harbor | ME | 2026-05-08 06:20 | AWOS | 41 | 32 | 70 | 29.72 | 5 | W | |||
| Bar Harbor | ME | 2026-05-08 06:25 | AWOS | 43 | 32 | 65 | 29.73 | 3 | W | |||
| Bar Harbor | ME | 2026-05-08 06:30 | AWOS | 43 | 30 | 61 | 29.73 | 6 | W | |||
| Bar Harbor | ME | 2026-05-08 06:35 | AWOS | 43 | 30 | 61 | 29.73 | 0 | N | |||
| Bar Harbor | ME | 2026-05-08 06:45 | AWOS | 43 | 30 | 61 | 29.73 | 6 | W | |||
| Bar Harbor | ME | 2026-05-08 06:50 | AWOS | 43 | 32 | 65 | 29.74 | 7 | W | |||
| Bar Harbor | ME | 2026-05-08 06:55 | AWOS | 43 | 32 | 65 | 29.74 | 7 | W | |||
| Bar Harbor | ME | 2026-05-08 04:15 | AWOS | 39 | 28 | 65 | 29.71 | 3 | WSW | |||
| Bar Harbor | ME | 2026-05-08 04:05 | AWOS | 39 | 28 | 65 | 29.70 | 3 | W | |||
| Bar Harbor | ME | 2026-05-08 07:00 | AWOS | 45 | 32 | 61 | 29.74 | 6 | W | |||
| Bar Harbor | ME | 2026-05-08 02:45 | AWOS | 39 | 30 | 70 | 29.70 | 0 | N | |||
| Bar Harbor | ME | 2026-05-08 01:35 | AWOS | 41 | 28 | 61 | 29.71 | 3 | WSW | |||
| Bar Harbor | ME | 2026-05-08 01:40 | AWOS | 41 | 30 | 65 | 29.71 | 5 | W | |||
| Bar Harbor | ME | 2026-05-08 01:45 | AWOS | 41 | 28 | 61 | 29.71 | 5 | W | |||
| Bar Harbor | ME | 2026-05-08 01:55 | AWOS | 43 | 28 | 56 | 29.70 | 3 | WNW | |||
| Bar Harbor | ME | 2026-05-08 01:56 | AWOS | 41 | 29 | 62 | 29.71 | 0 | N | |||
| Bar Harbor | ME | 2026-05-08 02:00 | AWOS | 41 | 30 | 65 | 29.70 | 3 | WNW | |||
| Bar Harbor | ME | 2026-05-08 02:05 | AWOS | 39 | 30 | 70 | 29.70 | 0 | N | |||
| Bar Harbor | ME | 2026-05-08 02:10 | AWOS | 39 | 30 | 70 | 29.70 | 3 | W | |||
| Bar Harbor | ME | 2026-05-08 02:15 | AWOS | 41 | 28 | 61 | 29.70 | 0 | N | |||
| Bar Harbor | ME | 2026-05-08 02:20 | AWOS | 39 | 30 | 70 | 29.70 | 0 | N | |||
| Bar Harbor | ME | 2026-05-08 02:25 | AWOS | 39 | 30 | 70 | 29.70 | 0 | N | |||
| Bar Harbor | ME | 2026-05-08 02:30 | AWOS | 39 | 30 | 70 | 29.70 | 0 | N | |||
| Bar Harbor | ME | 2026-05-08 02:40 | AWOS | 39 | 30 | 70 | 29.70 | 3 | W | |||
| Bar Harbor | ME | 2026-05-08 02:50 | AWOS | 39 | 30 | 70 | 29.70 | 3 | W | |||
| Bar Harbor | ME | 2026-05-08 04:00 | AWOS | 39 | 28 | 65 | 29.70 | 3 | W | |||
| Bar Harbor | ME | 2026-05-08 02:55 | AWOS | 39 | 30 | 70 | 29.70 | 3 | WNW | |||
| Bar Harbor | ME | 2026-05-08 02:56 | AWOS | 40 | 30 | 67 | 29.70 | 0 | N | |||
| Bar Harbor | ME | 2026-05-08 03:00 | AWOS | 39 | 28 | 65 | 29.70 | 0 | N | |||
| Bar Harbor | ME | 2026-05-08 03:05 | AWOS | 37 | 30 | 75 | 29.70 | 0 | N | |||
| Bar Harbor | ME | 2026-05-08 03:10 | AWOS | 37 | 30 | 75 | 29.70 | 0 | N | |||
| Bar Harbor | ME | 2026-05-08 03:15 | AWOS | 37 | 30 | 75 | 29.70 | 3 | NW | |||
| Bar Harbor | ME | 2026-05-08 03:20 | AWOS | 39 | 28 | 65 | 29.70 | 5 | WNW | |||
| Bar Harbor | ME | 2026-05-08 03:25 | AWOS | 39 | 28 | 65 | 29.70 | 6 | WNW | |||
| Bar Harbor | ME | 2026-05-08 03:30 | AWOS | 39 | 28 | 65 | 29.70 | 5 | WNW | |||
| Bar Harbor | ME | 2026-05-08 03:35 | AWOS | 41 | 28 | 61 | 29.70 | 5 | W | |||
| Bar Harbor | ME | 2026-05-08 03:40 | AWOS | 41 | 28 | 61 | 29.70 | 6 | WNW | |||
| Bar Harbor | ME | 2026-05-08 03:45 | AWOS | 41 | 28 | 61 | 29.70 | 5 | W | |||
| Bar Harbor | ME | 2026-05-08 03:56 | AWOS | 41 | 29 | 62 | 29.70 | 5 | W | |||
| Bar Harbor | ME | 2026-05-08 06:56 | AWOS | 43 | 32 | 65 | 29.74 | 6 | W | |||
| Bar Harbor | ME | 2026-05-08 07:05 | AWOS | 45 | 32 | 61 | 29.74 | 8 | W | |||
| Bar Harbor | ME | 2026-05-08 01:25 | AWOS | 41 | 30 | 65 | 29.71 | 5 | W | |||
| Bar Harbor | ME | 2026-05-08 11:25 | AWOS | 54 | 34 | 47 | 29.72 | 6 | WNW | |||
| Bar Harbor | ME | 2026-05-08 10:25 | AWOS | 52 | 34 | 50 | 29.73 | 10 | WNW | |||
| Bar Harbor | ME | 2026-05-08 10:30 | AWOS | 52 | 34 | 50 | 29.73 | 10 | NW | |||
| Bar Harbor | ME | 2026-05-08 10:35 | AWOS | 52 | 34 | 50 | 29.73 | 13 | NW | |||
| Bar Harbor | ME | 2026-05-08 10:40 | AWOS | 52 | 34 | 50 | 29.73 | 10 | NNW | |||
| Bar Harbor | ME | 2026-05-08 10:45 | AWOS | 52 | 34 | 50 | 29.73 | 9 | W | |||
| Bar Harbor | ME | 2026-05-08 10:50 | AWOS | 52 | 34 | 50 | 29.73 | 9 | W | |||
| Bar Harbor | ME | 2026-05-08 10:55 | AWOS | 52 | 34 | 50 | 29.73 | 9 | W | |||
| Bar Harbor | ME | 2026-05-08 10:56 | AWOS | 52 | 33 | 48 | 29.73 | 12 | W | |||
| Bar Harbor | ME | 2026-05-08 11:05 | AWOS | 52 | 34 | 50 | 29.73 | 10 | WNW | |||
| Bar Harbor | ME | 2026-05-08 11:10 | AWOS | 52 | 32 | 47 | 29.73 | 12 | NW | |||
| Bar Harbor | ME | 2026-05-08 11:15 | AWOS | 54 | 32 | 44 | 29.72 | 10 | WNW | |||
| Bar Harbor | ME | 2026-05-08 11:20 | AWOS | 54 | 34 | 47 | 29.72 | 12 | WNW | |||
| Bar Harbor | ME | 2026-05-08 11:35 | AWOS | 54 | 32 | 44 | 29.72 | 8 | W | |||
| Bar Harbor | ME | 2026-05-08 10:10 | AWOS | 52 | 34 | 50 | 29.73 | 8 | W | |||
| Bar Harbor | ME | 2026-05-08 11:40 | AWOS | 54 | 34 | 47 | 29.72 | 9 | W | |||
| Bar Harbor | ME | 2026-05-08 11:45 | AWOS | 54 | 30 | 41 | 29.72 | 10 | WNW | |||
| Bar Harbor | ME | 2026-05-08 11:50 | AWOS | 54 | 30 | 41 | 29.72 | 12 | WSW | |||
| Bar Harbor | ME | 2026-05-08 11:55 | AWOS | 54 | 32 | 44 | 29.72 | 12 | WSW | |||
| Bar Harbor | ME | 2026-05-08 11:56 | AWOS | 53 | 32 | 44 | 29.72 | 10 | WSW | |||
| Bar Harbor | ME | 2026-05-08 12:00 | AWOS | 54 | 32 | 44 | 29.71 | 12 | WSW | |||
| Bar Harbor | ME | 2026-05-08 12:05 | AWOS | 54 | 30 | 41 | 29.71 | 12 | NNW | |||
| Bar Harbor | ME | 2026-05-08 12:10 | AWOS | 54 | 30 | 41 | 29.72 | 10 | W | |||
| Bar Harbor | ME | 2026-05-08 12:15 | AWOS | 54 | 30 | 41 | 29.72 | 10 | W | |||
| Bar Harbor | ME | 2026-05-08 12:20 | AWOS | 55 | 30 | 38 | 29.72 | 8 | WNW | |||
| Bar Harbor | ME | 2026-05-08 12:30 | AWOS | 54 | 28 | 38 | 29.71 | 8 | W | |||
| Bar Harbor | ME | 2026-05-08 12:35 | AWOS | 55 | 30 | 38 | 29.71 | 6 | W | |||
| Bar Harbor | ME | 2026-05-08 12:40 | AWOS | 55 | 30 | 38 | 29.71 | 10 | NW | |||
| Bar Harbor | ME | 2026-05-08 10:20 | AWOS | 52 | 34 | 50 | 29.73 | 12 | W | |||
| Bar Harbor | ME | 2026-05-08 10:05 | AWOS | 52 | 34 | 50 | 29.73 | 9 | W | |||
| Bar Harbor | ME | 2026-05-08 07:10 | AWOS | 45 | 32 | 61 | 29.74 | 5 | WNW | |||
| Bar Harbor | ME | 2026-05-08 08:40 | AWOS | 48 | 34 | 57 | 29.75 | 9 | WNW | |||
| Bar Harbor | ME | 2026-05-08 07:15 | AWOS | 45 | 32 | 61 | 29.74 | 6 | WNW | |||
| Bar Harbor | ME | 2026-05-08 07:20 | AWOS | 45 | 32 | 61 | 29.74 | 7 | W | |||
| Bar Harbor | ME | 2026-05-08 07:25 | AWOS | 45 | 34 | 66 | 29.74 | 6 | WNW | |||
| Bar Harbor | ME | 2026-05-08 07:30 | AWOS | 45 | 32 | 61 | 29.74 | 6 | WNW | |||
| Bar Harbor | ME | 2026-05-08 07:35 | AWOS | 46 | 34 | 61 | 29.74 | 6 | W | |||
| Bar Harbor | ME | 2026-05-08 07:40 | AWOS | 46 | 34 | 61 | 29.75 | 5 | W | |||
| Bar Harbor | ME | 2026-05-08 07:50 | AWOS | 46 | 34 | 61 | 29.75 | 7 | W | |||
| Bar Harbor | ME | 2026-05-08 07:55 | AWOS | 46 | 34 | 61 | 29.75 | 6 | NW | |||
| Bar Harbor | ME | 2026-05-08 08:00 | AWOS | 46 | 34 | 61 | 29.75 | 8 | NW | |||
| Bar Harbor | ME | 2026-05-08 08:05 | AWOS | 46 | 34 | 61 | 29.75 | 12 | W | |||
| Bar Harbor | ME | 2026-05-08 08:20 | AWOS | 48 | 34 | 57 | 29.75 | 10 | WNW | |||
| Bar Harbor | ME | 2026-05-08 08:30 | AWOS | 48 | 34 | 57 | 29.75 | 9 | WNW | |||
| Bar Harbor | ME | 2026-05-08 08:35 | AWOS | 48 | 34 | 57 | 29.75 | 9 | WNW | |||
| Bar Harbor | ME | 2026-05-08 08:45 | AWOS | 48 | 34 | 57 | 29.75 | 9 | W | |||
| Bar Harbor | ME | 2026-05-08 10:00 | AWOS | 52 | 34 | 50 | 29.73 | 10 | W | |||
| Bar Harbor | ME | 2026-05-08 08:50 | AWOS | 48 | 34 | 57 | 29.74 | 13 | WNW | |||
| Bar Harbor | ME | 2026-05-08 08:55 | AWOS | 48 | 34 | 57 | 29.74 | 10 | NW | |||
| Bar Harbor | ME | 2026-05-08 08:56 | AWOS | 49 | 34 | 56 | 29.74 | 10 | WNW | |||
| Bar Harbor | ME | 2026-05-08 09:00 | AWOS | 48 | 34 | 57 | 29.74 | 10 | NW | |||
| Bar Harbor | ME | 2026-05-08 09:05 | AWOS | 48 | 34 | 57 | 29.75 | 9 | NW | |||
| Bar Harbor | ME | 2026-05-08 09:10 | AWOS | 50 | 34 | 54 | 29.73 | 9 | NW | |||
| Bar Harbor | ME | 2026-05-08 09:15 | AWOS | 48 | 34 | 57 | 29.75 | 8 | WNW | |||
| Bar Harbor | ME | 2026-05-08 09:30 | AWOS | 50 | 34 | 54 | 29.74 | 6 | NW | |||
| Bar Harbor | ME | 2026-05-08 09:35 | AWOS | 52 | 35 | 54 | 29.74 | 9 | NW | |||
| Bar Harbor | ME | 2026-05-08 09:45 | AWOS | 50 | 34 | 54 | 29.73 | 8 | WNW | |||
| Bar Harbor | ME | 2026-05-08 09:50 | AWOS | 50 | 34 | 54 | 29.74 | 8 | WNW | |||
| Bar Harbor | ME | 2026-05-08 09:55 | AWOS | 52 | 34 | 50 | 29.73 | 6 | WNW | |||
| Bar Harbor | ME | 2026-05-08 09:56 | AWOS | 51 | 34 | 52 | 29.73 | 7 | ||||
| Bar Harbor | ME | 2026-05-08 01:30 | AWOS | 41 | 30 | 65 | 29.71 | 3 | W | |||
| Bar Harbor | ME | 2026-05-08 01:20 | AWOS | 39 | 30 | 70 | 29.71 | 3 | W | |||
| Bar Harbor | ME | 2026-05-07 12:56 | AWOS | 59 | 38 | 45 | 29.64 | 3 | ||||
| Bar Harbor | ME | 2026-05-07 17:50 | AWOS | 52 | 43 | 71 | 29.63 | 10 | SSW | |||
| Bar Harbor | ME | 2026-05-07 16:30 | AWOS | 54 | 43 | 67 | 29.63 | 14 | S | |||
| Bar Harbor | ME | 2026-05-07 16:35 | AWOS | 54 | 43 | 67 | 29.63 | 15 | S | |||
| Bar Harbor | ME | 2026-05-07 16:40 | AWOS | 54 | 43 | 67 | 29.62 | 15 | SSW | |||
| Bar Harbor | ME | 2026-05-07 16:45 | AWOS | 54 | 43 | 67 | 29.63 | 15 | S | |||
| Bar Harbor | ME | 2026-05-07 16:50 | AWOS | 54 | 43 | 67 | 29.63 | 14 | S | |||
| Bar Harbor | ME | 2026-05-07 16:56 | AWOS | 53 | 43 | 69 | 29.63 | 16 | SSW | |||
| Bar Harbor | ME | 2026-05-07 17:00 | AWOS | 52 | 43 | 71 | 29.63 | 14 | SSW | |||
| Bar Harbor | ME | 2026-05-07 17:10 | AWOS | 54 | 43 | 67 | 29.63 | 12 | SSW | |||
| Bar Harbor | ME | 2026-05-07 17:20 | AWOS | 52 | 43 | 71 | 29.63 | 13 | SSW | |||
| Bar Harbor | ME | 2026-05-07 17:25 | AWOS | 52 | 43 | 71 | 29.63 | 14 | SSW | |||
| Bar Harbor | ME | 2026-05-07 17:30 | AWOS | 52 | 43 | 71 | 29.63 | 13 | SSW | |||
| Bar Harbor | ME | 2026-05-07 17:35 | AWOS | 52 | 43 | 71 | 29.63 | 14 | SSW | |||
| Bar Harbor | ME | 2026-05-07 17:55 | AWOS | 52 | 43 | 71 | 29.63 | 12 | SSW | |||
| Bar Harbor | ME | 2026-05-07 16:15 | AWOS | 54 | 43 | 67 | 29.62 | 17 | SSW | |||
| Bar Harbor | ME | 2026-05-07 17:56 | AWOS | 51 | 43 | 74 | 29.63 | 12 | SSW | |||
| Bar Harbor | ME | 2026-05-07 18:00 | AWOS | 52 | 43 | 71 | 29.63 | 10 | SSW | |||
| Bar Harbor | ME | 2026-05-07 18:05 | AWOS | 52 | 43 | 71 | 29.63 | 10 | SSW | |||
| Bar Harbor | ME | 2026-05-07 18:10 | AWOS | 52 | 43 | 71 | 29.63 | 12 | SSW | |||
| Bar Harbor | ME | 2026-05-07 18:15 | AWOS | 52 | 43 | 71 | 29.63 | 10 | SSW | |||
| Bar Harbor | ME | 2026-05-07 18:20 | AWOS | 52 | 43 | 71 | 29.63 | 9 | SSW | |||
| Bar Harbor | ME | 2026-05-07 18:30 | AWOS | 52 | 43 | 71 | 29.63 | 9 | SSW | |||
| Bar Harbor | ME | 2026-05-07 18:35 | AWOS | 50 | 41 | 71 | 29.63 | 7 | SSW | |||
| Bar Harbor | ME | 2026-05-07 18:45 | AWOS | 50 | 43 | 76 | 29.63 | 8 | SSW | |||
| Bar Harbor | ME | 2026-05-07 18:55 | AWOS | 50 | 43 | 76 | 29.64 | 7 | SSW | |||
| Bar Harbor | ME | 2026-05-07 18:56 | AWOS | 50 | 42 | 74 | 29.64 | 6 | SSW | |||
| Bar Harbor | ME | 2026-05-07 19:00 | AWOS | 50 | 43 | 76 | 29.64 | 7 | SSW | |||
| Bar Harbor | ME | 2026-05-07 19:05 | AWOS | 50 | 43 | 76 | 29.64 | 9 | SSW | |||
| Bar Harbor | ME | 2026-05-07 16:20 | AWOS | 54 | 43 | 67 | 29.62 | 16 | SSW | |||
| Bar Harbor | ME | 2026-05-07 16:10 | AWOS | 55 | 43 | 62 | 29.63 | 15 | SSW | |||
| Bar Harbor | ME | 2026-05-07 19:15 | AWOS | 50 | 43 | 76 | 29.64 | 8 | SSW | |||
| Bar Harbor | ME | 2026-05-07 14:45 | AWOS | 55 | 44 | 67 | 29.63 | 16 | SSW | |||
| Bar Harbor | ME | 2026-05-07 13:15 | AWOS | 61 | 43 | 51 | 29.63 | 10 | SSW | |||
| Bar Harbor | ME | 2026-05-07 13:25 | AWOS | 59 | 43 | 55 | 29.63 | 13 | SSW | |||
| Bar Harbor | ME | 2026-05-07 13:30 | AWOS | 59 | 44 | 59 | 29.63 | 14 | S | |||
| Bar Harbor | ME | 2026-05-07 13:35 | AWOS | 59 | 43 | 55 | 29.63 | 15 | S | |||
| Bar Harbor | ME | 2026-05-07 13:40 | AWOS | 59 | 44 | 59 | 29.63 | 15 | SSW | |||
| Bar Harbor | ME | 2026-05-07 13:45 | AWOS | 57 | 44 | 63 | 29.64 | 15 | SSW | |||
| Bar Harbor | ME | 2026-05-07 13:50 | AWOS | 57 | 43 | 59 | 29.64 | 13 | SSW | |||
| Bar Harbor | ME | 2026-05-07 13:55 | AWOS | 57 | 44 | 63 | 29.64 | 14 | SSW | |||
| Bar Harbor | ME | 2026-05-07 13:56 | AWOS | 59 | 44 | 58 | 29.64 | 14 | SSW | |||
| Bar Harbor | ME | 2026-05-07 14:05 | AWOS | 57 | 44 | 63 | 29.63 | 15 | SSW | |||
| Bar Harbor | ME | 2026-05-07 14:25 | AWOS | 55 | 44 | 67 | 29.63 | 20 | S | |||
| Bar Harbor | ME | 2026-05-07 14:30 | AWOS | 55 | 44 | 67 | 29.63 | 17 | S | |||
| Bar Harbor | ME | 2026-05-07 14:40 | AWOS | 57 | 46 | 67 | 29.63 | 17 | SSW | |||
| Bar Harbor | ME | 2026-05-07 14:50 | AWOS | 55 | 44 | 67 | 29.63 | 18 | SSW | |||
| Bar Harbor | ME | 2026-05-07 16:05 | AWOS | 55 | 44 | 67 | 29.62 | 20 | SSW | |||
| Bar Harbor | ME | 2026-05-07 14:55 | AWOS | 55 | 44 | 67 | 29.63 | 18 | S | |||
| Bar Harbor | ME | 2026-05-07 14:56 | AWOS | 57 | 45 | 64 | 29.63 | 20 | S | |||
| Bar Harbor | ME | 2026-05-07 15:05 | AWOS | 55 | 44 | 67 | 29.63 | 20 | S | |||
| Bar Harbor | ME | 2026-05-07 15:10 | AWOS | 55 | 43 | 62 | 29.63 | 18 | S | |||
| Bar Harbor | ME | 2026-05-07 15:20 | AWOS | 55 | 44 | 67 | 29.62 | 16 | S | |||
| Bar Harbor | ME | 2026-05-07 15:30 | AWOS | 54 | 43 | 67 | 29.63 | 14 | SSW | |||
| Bar Harbor | ME | 2026-05-07 15:35 | AWOS | 54 | 43 | 67 | 29.62 | 17 | S | |||
| Bar Harbor | ME | 2026-05-07 15:40 | AWOS | 54 | 43 | 67 | 29.63 | 15 | SSW | |||
| Bar Harbor | ME | 2026-05-07 15:45 | AWOS | 54 | 43 | 67 | 29.63 | 15 | SSW | |||
| Bar Harbor | ME | 2026-05-07 15:50 | AWOS | 54 | 43 | 67 | 29.62 | 17 | SSW | |||
| Bar Harbor | ME | 2026-05-07 15:55 | AWOS | 55 | 43 | 62 | 29.62 | 16 | SSW | |||
| Bar Harbor | ME | 2026-05-07 15:56 | AWOS | 55 | 43 | 64 | 29.62 | 16 | SSW | |||
| Bar Harbor | ME | 2026-05-07 16:00 | AWOS | 55 | 44 | 67 | 29.62 | 16 | S | |||
| Bar Harbor | ME | 2026-05-07 19:10 | AWOS | 50 | 43 | 76 | 29.64 | 9 | SSW | |||
| Bar Harbor | ME | 2026-05-07 19:25 | AWOS | 50 | 43 | 76 | 29.65 | 7 | SSW | |||
| Bar Harbor | ME | 2026-05-08 01:15 | AWOS | 39 | 30 | 70 | 29.71 | 3 | W | |||
| Bar Harbor | ME | 2026-05-07 23:45 | AWOS | 45 | 28 | 53 | 29.72 | 5 | NW | |||
| Bar Harbor | ME | 2026-05-07 22:45 | AWOS | 46 | 28 | 49 | 29.72 | 6 | NW | |||
| Bar Harbor | ME | 2026-05-07 22:50 | AWOS | 46 | 28 | 49 | 29.72 | 6 | NW | |||
| Bar Harbor | ME | 2026-05-07 22:55 | AWOS | 46 | 26 | 46 | 29.72 | 5 | NW | |||
| Bar Harbor | ME | 2026-05-07 23:00 | AWOS | 46 | 26 | 46 | 29.72 | 6 | WNW | |||
| Bar Harbor | ME | 2026-05-07 23:05 | AWOS | 46 | 26 | 46 | 29.72 | 6 | NW | |||
| Bar Harbor | ME | 2026-05-07 23:10 | AWOS | 46 | 26 | 46 | 29.72 | 5 | NW | |||
| Bar Harbor | ME | 2026-05-07 23:15 | AWOS | 46 | 26 | 46 | 29.72 | 6 | NW | |||
| Bar Harbor | ME | 2026-05-07 23:20 | AWOS | 45 | 28 | 53 | 29.72 | 6 | NW | |||
| Bar Harbor | ME | 2026-05-07 23:25 | AWOS | 45 | 28 | 53 | 29.72 | 5 | NW | |||
| Bar Harbor | ME | 2026-05-07 23:30 | AWOS | 45 | 28 | 53 | 29.73 | 3 | WNW | |||
| Bar Harbor | ME | 2026-05-07 23:35 | AWOS | 45 | 28 | 53 | 29.73 | 3 | WNW | |||
| Bar Harbor | ME | 2026-05-07 23:40 | AWOS | 45 | 28 | 53 | 29.73 | 3 | NW | |||
| Bar Harbor | ME | 2026-05-07 23:50 | AWOS | 45 | 28 | 53 | 29.72 | 5 | NW | |||
| Bar Harbor | ME | 2026-05-07 22:30 | AWOS | 48 | 28 | 46 | 29.71 | 6 | NNW | |||
| Bar Harbor | ME | 2026-05-07 23:55 | AWOS | 45 | 28 | 53 | 29.72 | 5 | WNW | |||
| Bar Harbor | ME | 2026-05-07 23:56 | AWOS | 44 | 28 | 53 | 29.72 | 5 | WNW | |||
| Bar Harbor | ME | 2026-05-08 00:00 | AWOS | 45 | 28 | 53 | 29.72 | 3 | NW | |||
| Bar Harbor | ME | 2026-05-08 00:10 | AWOS | 45 | 28 | 53 | 29.72 | 5 | WNW | |||
| Bar Harbor | ME | 2026-05-08 00:15 | AWOS | 45 | 28 | 53 | 29.72 | 5 | NW | |||
| Bar Harbor | ME | 2026-05-08 00:25 | AWOS | 45 | 28 | 53 | 29.72 | 0 | N | |||
| Bar Harbor | ME | 2026-05-08 00:30 | AWOS | 45 | 28 | 53 | 29.72 | 0 | N | |||
| Bar Harbor | ME | 2026-05-08 00:35 | AWOS | 43 | 28 | 56 | 29.72 | 0 | N | |||
| Bar Harbor | ME | 2026-05-08 00:50 | AWOS | 39 | 30 | 70 | 29.71 | 0 | N | |||
| Bar Harbor | ME | 2026-05-08 00:55 | AWOS | 39 | 30 | 70 | 29.71 | 0 | N | |||
| Bar Harbor | ME | 2026-05-08 00:56 | AWOS | 39 | 30 | 70 | 29.72 | 0 | N | |||
| Bar Harbor | ME | 2026-05-08 01:05 | AWOS | 39 | 30 | 70 | 29.71 | 0 | N | |||
| Bar Harbor | ME | 2026-05-08 01:10 | AWOS | 39 | 30 | 70 | 29.71 | 0 | N | |||
| Bar Harbor | ME | 2026-05-07 22:40 | AWOS | 46 | 28 | 49 | 29.71 | 5 | NW | |||
| Bar Harbor | ME | 2026-05-07 22:25 | AWOS | 48 | 28 | 46 | 29.71 | 7 | NW | |||
| Bar Harbor | ME | 2026-05-07 19:30 | AWOS | 50 | 43 | 76 | 29.65 | 8 | SSW | |||
| Bar Harbor | ME | 2026-05-07 20:56 | AWOS | 51 | 30 | 44 | 29.70 | 8 | NW | |||
| Bar Harbor | ME | 2026-05-07 19:35 | AWOS | 50 | 43 | 76 | 29.65 | 7 | SSW | |||
| Bar Harbor | ME | 2026-05-07 19:45 | AWOS | 48 | 43 | 81 | 29.67 | 6 | SW | |||
| Bar Harbor | ME | 2026-05-07 19:56 | AWOS | 49 | 42 | 77 | 29.67 | 7 | WSW | |||
| Bar Harbor | ME | 2026-05-07 20:00 | AWOS | 48 | 43 | 81 | 29.68 | 6 | WSW | |||
| Bar Harbor | ME | 2026-05-07 20:15 | AWOS | 48 | 43 | 81 | 29.69 | 5 | W | |||
| Bar Harbor | ME | 2026-05-07 20:20 | AWOS | 48 | 43 | 81 | 29.69 | 6 | NW | |||
| Bar Harbor | ME | 2026-05-07 20:25 | AWOS | 52 | 41 | 66 | 29.68 | 7 | NW | |||
| Bar Harbor | ME | 2026-05-07 20:30 | AWOS | 52 | 39 | 62 | 29.69 | 7 | NW | |||
| Bar Harbor | ME | 2026-05-07 20:35 | AWOS | 52 | 37 | 58 | 29.69 | 7 | NW | |||
| Bar Harbor | ME | 2026-05-07 20:40 | AWOS | 52 | 35 | 54 | 29.69 | 10 | NW | |||
| Bar Harbor | ME | 2026-05-07 20:45 | AWOS | 52 | 34 | 50 | 29.69 | 8 | NW | |||
| Bar Harbor | ME | 2026-05-07 20:50 | AWOS | 52 | 32 | 47 | 29.69 | 14 | NNW | |||
| Bar Harbor | ME | 2026-05-07 20:55 | AWOS | 52 | 30 | 43 | 29.70 | 8 | NW | |||
| Bar Harbor | ME | 2026-05-07 21:00 | AWOS | 52 | 30 | 43 | 29.70 | 8 | NW | |||
| Bar Harbor | ME | 2026-05-07 22:20 | AWOS | 48 | 28 | 46 | 29.72 | 6 | NNW | |||
| Bar Harbor | ME | 2026-05-07 21:05 | AWOS | 52 | 30 | 43 | 29.70 | 7 | NW | |||
| Bar Harbor | ME | 2026-05-07 21:15 | AWOS | 50 | 30 | 46 | 29.71 | 6 | NW | |||
| Bar Harbor | ME | 2026-05-07 21:20 | AWOS | 50 | 30 | 46 | 29.71 | 6 | NNW | |||
| Bar Harbor | ME | 2026-05-07 21:25 | AWOS | 48 | 30 | 50 | 29.72 | 8 | NNW | |||
| Bar Harbor | ME | 2026-05-07 21:30 | AWOS | 50 | 30 | 46 | 29.71 | 6 | NNW | |||
| Bar Harbor | ME | 2026-05-07 21:35 | AWOS | 48 | 30 | 50 | 29.72 | 7 | NNW | |||
| Bar Harbor | ME | 2026-05-07 21:40 | AWOS | 48 | 30 | 50 | 29.72 | 5 | NNW | |||
| Bar Harbor | ME | 2026-05-07 21:45 | AWOS | 48 | 28 | 46 | 29.72 | 6 | NNW | |||
| Bar Harbor | ME | 2026-05-07 21:50 | AWOS | 48 | 28 | 46 | 29.72 | 5 | NNW | |||
| Bar Harbor | ME | 2026-05-07 21:55 | AWOS | 48 | 28 | 46 | 29.72 | 6 | NNW | |||
| Bar Harbor | ME | 2026-05-07 21:56 | AWOS | 48 | 29 | 47 | 29.72 | 7 | NW | |||
| Bar Harbor | ME | 2026-05-07 22:00 | AWOS | 48 | 28 | 46 | 29.72 | 5 | NNW | |||
| Bar Harbor | ME | 2026-05-07 22:10 | AWOS | 48 | 28 | 46 | 29.72 | 6 | NW | |||
| Bar Harbor | ME | 2026-05-08 08:15 | AWOS | 9 | W |
data collection created in 0.03764796257019 (queried in 0.008258) rendered in: 0.00049614906311035

